createdAt,value
2017-10-09T00:01:36.699Z,95267.24
2017-10-09T00:04:05.050Z,95266.23
2017-10-09T00:06:33.386Z,95268.74
2017-10-09T00:09:01.830Z,95272.30
2017-10-09T00:11:30.206Z,95273.39
2017-10-09T00:13:58.550Z,95277.23
2017-10-09T00:16:27.029Z,95267.28
2017-10-09T00:18:55.374Z,95262.30
2017-10-09T00:21:23.724Z,95272.03
2017-10-09T00:23:52.070Z,95264.76
2017-10-09T00:26:20.442Z,95268.37
2017-10-09T00:28:48.783Z,95268.85
2017-10-09T00:31:17.135Z,95264.72
2017-10-09T00:33:45.475Z,95265.20
2017-10-09T00:36:13.818Z,95264.20
2017-10-09T00:38:42.300Z,95259.28
2017-10-09T00:41:10.646Z,95260.31
2017-10-09T00:43:38.985Z,95259.28
2017-10-09T00:46:07.342Z,95259.63
2017-10-09T00:48:35.691Z,95261.55
2017-10-09T00:51:04.079Z,95261.30
2017-10-09T00:53:32.413Z,95260.78
2017-10-09T00:56:00.786Z,95260.77
2017-10-09T00:58:29.130Z,95259.16
2017-10-09T01:00:57.479Z,95258.70
2017-10-09T01:03:25.832Z,95260.09
2017-10-09T01:05:54.184Z,95252.06
2017-10-09T01:08:22.613Z,95251.38
2017-10-09T01:10:50.962Z,95248.86
2017-10-09T01:13:19.305Z,95250.03
2017-10-09T01:15:47.659Z,95253.89
2017-10-09T01:18:16.002Z,95247.05
2017-10-09T01:20:44.351Z,95253.70
2017-10-09T01:23:12.694Z,95255.45
2017-10-09T01:25:41.070Z,95244.55
2017-10-09T01:28:09.417Z,95249.77
2017-10-09T01:30:37.765Z,95249.72
2017-10-09T01:33:06.118Z,95246.13
2017-10-09T01:35:34.494Z,95240.20
2017-10-09T01:38:02.859Z,95248.25
2017-10-09T01:40:31.206Z,95249.30
2017-10-09T01:42:59.582Z,95249.91
2017-10-09T01:45:27.927Z,95243.59
2017-10-09T01:47:56.274Z,95245.30
2017-10-09T01:50:24.622Z,95243.36
2017-10-09T01:52:53.007Z,95234.95
2017-10-09T01:55:21.354Z,95241.02
2017-10-09T01:57:49.698Z,95241.69
2017-10-09T02:00:18.047Z,95244.20
2017-10-09T02:02:46.422Z,95244.72
2017-10-09T02:05:14.771Z,95248.95
2017-10-09T02:07:43.119Z,95243.16
2017-10-09T02:10:11.466Z,95243.59
2017-10-09T02:12:39.840Z,95241.30
2017-10-09T02:15:08.190Z,95251.41
2017-10-09T02:17:36.534Z,95243.04
2017-10-09T02:20:04.879Z,95241.70
2017-10-09T02:22:33.348Z,95246.38
2017-10-09T02:25:01.850Z,95248.73
2017-10-09T02:27:30.221Z,95248.05
2017-10-09T02:29:58.577Z,95249.83
2017-10-09T02:32:27.043Z,95247.23
2017-10-09T02:34:55.400Z,95251.77
2017-10-09T02:37:23.738Z,95250.94
2017-10-09T02:39:52.089Z,95245.28
2017-10-09T02:42:20.430Z,95240.69
2017-10-09T02:44:48.782Z,95236.59
2017-10-09T02:47:17.162Z,95240.61
2017-10-09T02:49:45.536Z,95239.80
2017-10-09T02:52:13.879Z,95241.48
2017-10-09T02:54:42.254Z,95245.15
2017-10-09T02:57:10.605Z,95241.86
2017-10-09T02:59:38.947Z,95235.61
2017-10-09T03:02:07.309Z,95235.16
2017-10-09T03:04:35.661Z,95232.28
2017-10-09T03:07:04.006Z,95239.11
2017-10-09T03:09:33.054Z,95238.28
2017-10-09T03:12:01.399Z,95243.90
2017-10-09T03:14:29.742Z,95241.83
2017-10-09T03:16:58.210Z,95238.33
2017-10-09T03:19:26.562Z,95235.77
2017-10-09T03:21:54.914Z,95236.67
2017-10-09T03:24:23.265Z,95228.31
2017-10-09T03:26:57.170Z,95231.81
2017-10-09T03:29:41.205Z,95234.50
2017-10-09T03:32:09.551Z,95233.19
2017-10-09T03:34:38.023Z,95240.80
2017-10-09T03:37:06.370Z,95236.77
2017-10-09T03:39:34.710Z,95241.98
2017-10-09T03:42:03.095Z,95249.42
2017-10-09T03:44:31.456Z,95246.34
2017-10-09T03:46:59.793Z,95249.74
2017-10-09T03:49:28.138Z,95245.31
2017-10-09T03:51:56.492Z,95248.23
2017-10-09T03:54:24.838Z,95249.17
2017-10-09T03:56:53.186Z,95244.48
2017-10-09T03:59:21.576Z,95250.84
2017-10-09T04:01:49.918Z,95239.24
2017-10-09T04:04:18.274Z,95236.78
2017-10-09T04:06:46.934Z,95241.02
2017-10-09T04:09:15.283Z,95239.66
2017-10-09T04:11:43.639Z,95239.12
2017-10-09T04:14:12.010Z,95237.10
2017-10-09T04:16:40.371Z,95238.53
2017-10-09T04:19:08.719Z,95241.36
2017-10-09T04:21:37.065Z,95238.36
2017-10-09T04:24:05.414Z,95236.06
2017-10-09T04:26:33.779Z,95231.55
2017-10-09T04:29:02.384Z,95232.42
2017-10-09T04:31:30.726Z,95231.39
2017-10-09T04:33:59.082Z,95230.37
2017-10-09T04:36:27.456Z,95226.09
2017-10-09T04:38:55.802Z,95232.45
2017-10-09T04:41:24.270Z,95235.95
2017-10-09T04:43:52.620Z,95238.80
2017-10-09T04:46:20.974Z,95239.34
2017-10-09T04:48:49.310Z,95236.25
2017-10-09T04:51:17.649Z,95236.13
2017-10-09T04:53:46.031Z,95238.94
2017-10-09T04:56:14.391Z,95237.14
2017-10-09T04:58:42.743Z,95236.80
2017-10-09T05:01:11.097Z,95237.35
2017-10-09T05:03:39.453Z,95237.03
2017-10-09T05:06:07.826Z,95241.73
2017-10-09T05:08:36.173Z,95244.01
2017-10-09T05:11:04.527Z,95247.02
2017-10-09T05:13:32.891Z,95252.74
2017-10-09T05:16:01.241Z,95250.77
2017-10-09T05:18:29.598Z,95248.05
2017-10-09T05:20:57.946Z,95251.14
2017-10-09T05:23:26.727Z,95241.98
2017-10-09T05:25:55.075Z,95246.02
2017-10-09T05:28:23.417Z,95252.64
2017-10-09T05:30:51.798Z,95247.42
2017-10-09T05:33:20.141Z,95246.88
2017-10-09T05:35:48.514Z,95249.61
2017-10-09T05:38:16.862Z,95240.11
2017-10-09T05:40:45.339Z,95247.19
2017-10-09T05:43:13.681Z,95243.30
2017-10-09T05:45:43.714Z,95242.55
2017-10-09T05:48:12.062Z,95244.86
2017-10-09T05:50:40.409Z,95241.92
2017-10-09T05:53:08.759Z,95244.17
2017-10-09T05:55:37.106Z,95243.19
2017-10-09T05:58:05.483Z,95238.81
2017-10-09T06:00:33.826Z,95234.99
2017-10-09T06:03:02.366Z,95238.20
2017-10-09T06:05:30.714Z,95240.14
2017-10-09T06:07:59.046Z,95244.67
2017-10-09T06:10:27.530Z,95240.30
2017-10-09T06:12:55.872Z,95234.70
2017-10-09T06:15:24.210Z,95234.41
2017-10-09T06:17:52.559Z,95231.39
2017-10-09T06:20:20.900Z,95234.00
2017-10-09T06:22:49.240Z,95230.95
2017-10-09T06:25:17.578Z,95231.92
2017-10-09T06:27:45.919Z,95231.19
2017-10-09T06:30:14.285Z,95232.19
2017-10-09T06:32:42.626Z,95233.12
2017-10-09T06:35:10.974Z,95229.04
2017-10-09T06:37:39.314Z,95231.25
2017-10-09T06:40:07.669Z,95231.84
2017-10-09T06:42:36.020Z,95231.17
2017-10-09T06:45:05.310Z,95231.26
2017-10-09T06:47:33.646Z,95230.09
2017-10-09T06:50:02.014Z,95236.96
2017-10-09T06:52:30.346Z,95237.64
2017-10-09T06:54:58.697Z,95242.54
2017-10-09T06:57:27.035Z,95242.22
2017-10-09T06:59:55.372Z,95247.17
2017-10-09T07:02:23.714Z,95237.91
2017-10-09T07:04:52.050Z,95242.73
2017-10-09T07:07:20.382Z,95238.75
2017-10-09T07:09:48.766Z,95239.45
2017-10-09T07:12:17.127Z,95242.58
2017-10-09T07:14:45.465Z,95242.09
2017-10-09T07:17:13.837Z,95243.61
2017-10-09T07:19:42.174Z,95238.84
2017-10-09T07:22:10.522Z,95247.63
2017-10-09T07:24:38.863Z,95248.77
2017-10-09T07:27:07.199Z,95251.19
2017-10-09T07:29:35.537Z,95247.89
2017-10-09T07:32:03.888Z,95246.11
2017-10-09T07:34:32.230Z,95250.48
2017-10-09T07:37:00.603Z,95256.66
2017-10-09T07:39:28.950Z,95256.39
2017-10-09T07:41:57.296Z,95264.33
2017-10-09T07:44:25.654Z,95263.87
2017-10-09T07:46:53.994Z,95267.43
2017-10-09T07:49:22.335Z,95264.28
2017-10-09T07:51:50.678Z,95262.83
2017-10-09T07:54:19.023Z,95271.41
2017-10-09T07:56:47.388Z,95266.73
2017-10-09T07:59:15.727Z,95262.39
2017-10-09T08:01:44.074Z,95262.75
2017-10-09T08:04:12.422Z,95262.80
2017-10-09T08:06:40.760Z,95260.38
2017-10-09T08:09:09.103Z,95258.56
2017-10-09T08:11:37.438Z,95260.48
2017-10-09T08:14:05.786Z,95266.45
2017-10-09T08:16:34.129Z,95267.84
2017-10-09T08:19:02.681Z,95265.81
2017-10-09T08:21:31.017Z,95268.58
2017-10-09T08:23:59.362Z,95272.86
2017-10-09T08:26:27.704Z,95270.39
2017-10-09T08:28:56.055Z,95272.12
2017-10-09T08:31:24.401Z,95275.14
2017-10-09T08:33:52.739Z,95271.08
2017-10-09T08:36:21.083Z,95268.86
2017-10-09T08:38:49.430Z,95265.11
2017-10-09T08:41:17.774Z,95263.95
2017-10-09T08:43:46.106Z,95267.30
2017-10-09T08:46:14.471Z,95266.70
2017-10-09T08:48:43.402Z,95266.55
2017-10-09T08:51:11.738Z,95267.70
2017-10-09T08:53:40.082Z,95269.42
2017-10-09T08:56:08.454Z,95270.23
2017-10-09T08:58:36.795Z,95266.30
2017-10-09T09:01:05.141Z,95271.40
2017-10-09T09:03:33.513Z,95273.91
2017-10-09T09:06:01.848Z,95273.53
2017-10-09T09:08:30.189Z,95262.14
2017-10-09T09:10:58.538Z,95270.73
2017-10-09T09:13:26.917Z,95270.67
2017-10-09T09:15:55.259Z,95269.91
2017-10-09T09:18:23.590Z,95268.37
2017-10-09T09:20:51.923Z,95270.38
2017-10-09T09:23:20.262Z,95269.73
2017-10-09T09:25:48.594Z,95264.14
2017-10-09T09:28:16.962Z,95268.27
2017-10-09T09:30:45.344Z,95261.73
2017-10-09T09:33:14.542Z,95263.95
2017-10-09T09:35:42.874Z,95263.37
2017-10-09T09:38:11.222Z,95277.48
2017-10-09T09:40:39.558Z,95266.81
2017-10-09T09:43:08.019Z,95269.02
2017-10-09T09:45:36.412Z,95271.34
2017-10-09T09:48:04.761Z,95275.85
2017-10-09T09:50:33.094Z,95271.64
2017-10-09T09:53:01.438Z,95277.77
2017-10-09T09:55:29.841Z,95273.31
2017-10-09T09:57:58.226Z,95281.05
2017-10-09T10:00:26.569Z,95272.36
2017-10-09T10:02:54.910Z,95273.55
2017-10-09T10:05:23.265Z,95272.26
2017-10-09T10:07:51.631Z,95271.06
2017-10-09T10:10:19.977Z,95270.95
2017-10-09T10:12:48.313Z,95269.39
2017-10-09T10:15:16.662Z,95278.37
2017-10-09T10:17:45.012Z,95281.47
2017-10-09T10:20:13.379Z,95276.56
2017-10-09T10:22:41.724Z,95281.86
2017-10-09T10:25:10.066Z,95283.81
2017-10-09T10:27:38.414Z,95282.28
2017-10-09T10:30:06.749Z,95280.46
2017-10-09T10:32:35.090Z,95269.35
2017-10-09T10:35:03.433Z,95270.95
2017-10-09T10:37:31.758Z,95268.56
2017-10-09T10:40:00.111Z,95263.78
2017-10-09T10:42:28.456Z,95266.77
2017-10-09T10:44:56.823Z,95264.69
2017-10-09T10:47:25.156Z,95265.46
2017-10-09T10:49:53.496Z,95262.60
2017-10-09T10:52:21.861Z,95261.05
2017-10-09T10:54:50.206Z,95269.78
2017-10-09T10:57:18.542Z,95258.70
2017-10-09T10:59:46.935Z,95257.53
2017-10-09T11:02:15.294Z,95256.21
2017-10-09T11:04:43.622Z,95259.10
2017-10-09T11:07:11.990Z,95257.66
2017-10-09T11:09:40.354Z,95253.88
2017-10-09T11:12:08.699Z,95244.78
2017-10-09T11:14:37.058Z,95252.34
2017-10-09T11:17:05.681Z,95243.98
2017-10-09T11:19:34.326Z,95250.77
2017-10-09T11:22:02.681Z,95245.20
2017-10-09T11:24:31.015Z,95242.94
2017-10-09T11:26:59.355Z,95239.21
2017-10-09T11:29:27.686Z,95245.44
2017-10-09T11:31:56.018Z,95235.93
2017-10-09T11:34:24.366Z,95237.58
2017-10-09T11:36:52.694Z,95232.77
2017-10-09T11:39:21.087Z,95231.43
2017-10-09T11:41:49.414Z,95236.66
2017-10-09T11:44:17.746Z,95237.34
2017-10-09T11:46:46.082Z,95235.02
2017-10-09T11:49:14.415Z,95231.76
2017-10-09T11:51:42.750Z,95232.81
2017-10-09T11:54:11.082Z,95235.41
2017-10-09T11:56:39.631Z,95238.88
2017-10-09T11:59:08.001Z,95232.09
2017-10-09T12:01:36.346Z,95226.67
2017-10-09T12:04:04.678Z,95227.80
2017-10-09T12:06:33.019Z,95231.59
2017-10-09T12:09:01.354Z,95230.13
2017-10-09T12:11:29.694Z,95221.09
2017-10-09T12:13:58.058Z,95222.05
2017-10-09T12:16:26.390Z,95228.95
2017-10-09T12:18:54.736Z,95220.30
2017-10-09T12:21:23.320Z,95219.67
2017-10-09T12:23:51.665Z,95222.40
2017-10-09T12:26:20.043Z,95222.77
2017-10-09T12:28:48.630Z,95219.39
2017-10-09T12:31:16.966Z,95214.39
2017-10-09T12:33:45.315Z,95205.20
2017-10-09T12:36:13.661Z,95200.48
2017-10-09T12:38:41.992Z,95204.41
2017-10-09T12:41:10.330Z,95207.39
2017-10-09T12:43:38.700Z,95204.27
2017-10-09T12:46:07.042Z,95201.69
2017-10-09T12:48:35.387Z,95201.55
2017-10-09T12:51:03.718Z,95196.23
2017-10-09T12:53:32.056Z,95190.09
2017-10-09T12:56:00.386Z,95189.50
2017-10-09T12:58:28.723Z,95183.80
2017-10-09T13:00:57.061Z,95181.77
2017-10-09T13:03:25.394Z,95179.55
2017-10-09T13:05:53.771Z,95180.28
2017-10-09T13:08:22.106Z,95178.14
2017-10-09T13:10:50.442Z,95184.91
2017-10-09T13:13:18.782Z,95189.31
2017-10-09T13:15:47.115Z,95179.66
2017-10-09T13:18:15.450Z,95176.80
2017-10-09T13:20:43.785Z,95174.72
2017-10-09T13:23:12.117Z,95177.94
2017-10-09T13:25:40.454Z,95180.16
2017-10-09T13:28:08.789Z,95177.99
2017-10-09T13:30:38.188Z,95177.45
2017-10-09T13:33:06.611Z,95182.25
2017-10-09T13:35:35.694Z,95173.44
2017-10-09T13:38:04.026Z,95173.40
2017-10-09T13:40:32.499Z,95175.00
2017-10-09T13:43:01.085Z,95173.81
2017-10-09T13:45:29.426Z,95173.59
2017-10-09T13:47:57.766Z,95166.80
2017-10-09T13:50:26.106Z,95163.91
2017-10-09T13:52:54.585Z,95161.70
2017-10-09T13:55:22.945Z,95163.61
2017-10-09T13:57:51.282Z,95162.86
2017-10-09T14:00:19.634Z,95165.17
2017-10-09T14:02:47.973Z,95159.83
2017-10-09T14:05:16.330Z,95163.92
2017-10-09T14:07:44.686Z,95156.12
2017-10-09T14:10:13.042Z,95157.91
2017-10-09T14:12:41.392Z,95164.78
2017-10-09T14:15:09.730Z,95154.67
2017-10-09T14:17:38.562Z,95151.80
2017-10-09T14:20:07.090Z,95153.54
2017-10-09T14:22:35.495Z,95146.22
2017-10-09T14:25:03.851Z,95148.08
2017-10-09T14:27:32.186Z,95146.87
2017-10-09T14:30:00.527Z,95146.76
2017-10-09T14:39:54.087Z,95143.11
2017-10-09T14:42:22.435Z,95143.52
2017-10-09T14:44:50.782Z,95141.13
2017-10-09T14:47:19.126Z,95140.69
2017-10-09T14:49:47.506Z,95136.31
2017-10-09T14:52:15.886Z,95137.37
2017-10-09T14:54:44.235Z,95140.20
2017-10-09T14:57:12.587Z,95132.44
2017-10-09T14:59:40.945Z,95133.30
2017-10-09T15:02:09.316Z,95127.95
2017-10-09T15:04:37.707Z,95130.33
2017-10-09T15:07:06.042Z,95125.03
2017-10-09T15:09:34.388Z,95123.19
2017-10-09T15:12:02.923Z,95124.89
2017-10-09T15:14:31.271Z,95124.11
2017-10-09T15:16:59.614Z,95120.36
2017-10-09T15:19:27.954Z,95118.00
2017-10-09T15:21:56.298Z,95115.78
2017-10-09T15:24:24.649Z,95119.71
2017-10-09T15:26:52.991Z,95118.00
2017-10-09T15:29:21.395Z,95118.89
2017-10-09T15:31:49.730Z,95112.38
2017-10-09T15:34:18.085Z,95116.68
2017-10-09T15:36:46.443Z,95116.80
2017-10-09T15:39:14.774Z,95107.95
2017-10-09T15:41:43.118Z,95116.52
2017-10-09T15:44:11.459Z,95115.13
2017-10-09T15:46:39.938Z,95113.51
2017-10-09T15:49:08.286Z,95105.72
2017-10-09T15:51:36.636Z,95108.55
2017-10-09T15:54:04.974Z,95108.87
2017-10-09T15:56:33.327Z,95106.64
2017-10-09T15:59:01.675Z,95112.25
2017-10-09T16:01:30.027Z,95111.45
2017-10-09T16:03:58.375Z,95111.33
2017-10-09T16:06:26.722Z,95113.95
2017-10-09T16:08:55.074Z,95111.23
2017-10-09T16:11:23.441Z,95109.16
2017-10-09T16:13:51.786Z,95110.76
2017-10-09T16:16:20.233Z,95114.63
2017-10-09T16:18:48.583Z,95112.51
2017-10-09T16:21:16.934Z,95113.30
2017-10-09T16:23:45.284Z,95109.01
2017-10-09T16:26:13.650Z,95105.86
2017-10-09T16:28:42.035Z,95101.70
2017-10-09T16:31:10.401Z,95110.72
2017-10-09T16:33:38.847Z,95114.44
2017-10-09T16:36:07.194Z,95118.81
2017-10-09T16:38:35.547Z,95117.50
2017-10-09T16:41:03.903Z,95121.10
2017-10-09T16:43:32.246Z,95117.83
2017-10-09T16:46:00.674Z,95116.91
2017-10-09T16:48:29.031Z,95116.77
2017-10-09T16:50:57.410Z,95113.55
2017-10-09T16:53:25.763Z,95117.58
2017-10-09T16:55:54.105Z,95116.20
2017-10-09T16:58:22.454Z,95112.41
2017-10-09T17:00:50.802Z,95117.91
2017-10-09T17:03:19.147Z,95119.48
2017-10-09T17:05:47.506Z,95118.61
2017-10-09T17:08:15.863Z,95109.07
2017-10-09T17:10:44.220Z,95113.33
2017-10-09T17:13:12.567Z,95118.16
2017-10-09T17:15:40.923Z,95107.91
2017-10-09T17:18:09.279Z,95103.75
2017-10-09T17:20:37.626Z,95109.88
2017-10-09T17:23:05.983Z,95115.36
2017-10-09T17:25:34.359Z,95112.73
2017-10-09T17:28:02.703Z,95111.75
2017-10-09T17:30:31.079Z,95110.04
2017-10-09T17:32:59.449Z,95111.11
2017-10-09T17:35:27.938Z,95109.67
2017-10-09T17:37:56.284Z,95100.80
2017-10-09T17:40:24.798Z,95105.91
2017-10-09T17:42:53.390Z,95102.66
2017-10-09T17:45:21.738Z,95099.66
2017-10-09T17:47:50.342Z,95095.48
2017-10-09T17:50:18.881Z,95092.48
2017-10-09T17:52:47.292Z,95098.03
2017-10-09T17:55:15.653Z,95093.63
2017-10-09T17:57:44.028Z,95094.28
2017-10-09T18:00:12.427Z,95090.11
2017-10-09T18:02:40.795Z,95089.35
2017-10-09T18:05:09.176Z,95089.74
2017-10-09T18:07:37.528Z,95076.12
2017-10-09T18:10:05.902Z,95077.91
2017-10-09T18:12:34.450Z,95076.45
2017-10-09T18:15:02.804Z,95078.58
2017-10-09T18:17:31.172Z,95082.45
2017-10-09T18:19:59.516Z,95084.78
2017-10-09T18:22:27.899Z,95083.47
2017-10-09T18:24:56.384Z,95091.26
2017-10-09T18:27:24.739Z,95088.05
2017-10-09T18:29:53.106Z,95091.28
2017-10-09T18:32:21.484Z,95092.56
2017-10-09T18:34:49.867Z,95092.37
2017-10-09T18:37:18.251Z,95095.81
2017-10-09T18:39:47.480Z,95089.19
2017-10-09T18:42:15.931Z,95093.14
2017-10-09T18:44:44.318Z,95086.96
2017-10-09T18:47:12.698Z,95084.75
2017-10-09T18:49:41.067Z,95076.47
2017-10-09T18:52:09.475Z,95079.20
2017-10-09T18:54:37.825Z,95066.64
2017-10-09T18:57:06.231Z,95071.86
2017-10-09T18:59:34.592Z,95074.69
2017-10-09T19:02:02.942Z,95069.20
2017-10-09T19:04:31.350Z,95070.81
2017-10-09T19:06:59.708Z,95070.64
2017-10-09T19:09:28.187Z,95070.74
2017-10-09T19:11:56.559Z,95068.09
2017-10-09T19:14:24.931Z,95068.25
2017-10-09T19:16:53.299Z,95069.11
2017-10-09T19:19:21.948Z,95073.07
2017-10-09T19:21:51.328Z,95071.41
2017-10-09T19:24:19.897Z,95077.30
2017-10-09T19:26:48.409Z,95076.70
2017-10-09T19:29:16.756Z,95063.19
2017-10-09T19:31:45.102Z,95073.14
2017-10-09T19:34:13.467Z,95065.39
2017-10-09T19:36:41.816Z,95059.28
2017-10-09T19:39:10.187Z,95063.42
2017-10-09T19:41:38.665Z,95057.94
2017-10-09T19:44:07.009Z,95056.56
2017-10-09T19:46:35.414Z,95055.77
2017-10-09T19:49:03.768Z,95060.70
2017-10-09T19:51:32.238Z,95069.42
2017-10-09T19:54:00.588Z,95070.23
2017-10-09T19:56:28.935Z,95060.66
2017-10-09T19:58:57.314Z,95057.16
2017-10-09T20:01:25.668Z,95052.89
2017-10-09T20:03:54.030Z,95053.06
2017-10-09T20:06:22.382Z,95049.91
2017-10-09T20:08:50.763Z,95053.64
2017-10-09T20:11:19.134Z,95059.92
2017-10-09T20:13:47.481Z,95052.63
2017-10-09T20:16:15.966Z,95052.25
2017-10-09T20:18:44.327Z,95046.37
2017-10-09T20:21:12.667Z,95045.98
2017-10-09T20:23:41.030Z,95039.64
2017-10-09T20:26:09.374Z,95035.50
2017-10-09T20:28:37.746Z,95031.35
2017-10-09T20:31:06.201Z,95026.80
2017-10-09T20:33:34.551Z,95033.98
2017-10-09T20:36:02.929Z,95028.53
2017-10-09T20:38:31.278Z,95033.08
2017-10-09T20:40:59.655Z,95030.86
2017-10-09T20:43:28.015Z,95039.28
2017-10-09T20:45:56.391Z,95037.19
2017-10-09T20:48:24.763Z,95036.52
2017-10-09T20:50:53.246Z,95026.80
2017-10-09T20:53:21.622Z,95020.81
2017-10-09T20:55:49.998Z,95019.00
2017-10-09T20:58:18.377Z,95015.50
2017-10-09T21:00:46.723Z,95021.48
2017-10-09T21:03:15.099Z,95022.51
2017-10-09T21:05:43.478Z,95017.81
2017-10-09T21:08:11.824Z,95018.59
2017-10-09T21:10:40.198Z,95020.85
2017-10-09T21:13:08.576Z,95015.77
2017-10-09T21:15:36.927Z,95022.81
2017-10-09T21:18:05.274Z,95026.44
2017-10-09T21:20:33.635Z,95029.14
2017-10-09T21:23:02.018Z,95021.11
2017-10-09T21:25:30.383Z,95022.80
2017-10-09T21:27:58.750Z,95027.33
2017-10-09T21:30:27.111Z,95026.17
2017-10-09T21:32:55.494Z,95027.75
2017-10-09T21:35:23.847Z,95025.80
2017-10-09T21:37:52.331Z,95026.95
2017-10-09T21:40:20.674Z,95025.78
2017-10-09T21:42:49.051Z,95023.30
2017-10-09T21:45:17.426Z,95023.31
2017-10-09T21:47:45.783Z,95020.72
2017-10-09T21:50:14.168Z,95013.84
2017-10-09T21:52:42.523Z,95012.90
2017-10-09T21:55:10.881Z,95010.95
2017-10-09T21:57:39.229Z,95011.11
2017-10-09T22:00:07.608Z,95008.38
2017-10-09T22:02:35.964Z,95011.73
2017-10-09T22:05:04.443Z,95009.53
2017-10-09T22:07:32.790Z,95007.67
2017-10-09T22:10:01.142Z,95003.88
2017-10-09T22:12:29.521Z,95004.36
2017-10-09T22:14:57.873Z,95008.95
2017-10-09T22:17:26.243Z,95000.50
2017-10-09T22:19:54.591Z,95002.92
2017-10-09T22:22:22.965Z,95001.71
2017-10-09T22:24:51.343Z,95000.23
2017-10-09T22:27:19.729Z,95002.61
2017-10-09T22:29:48.076Z,94997.72
2017-10-09T22:32:16.428Z,94989.59
2017-10-09T22:34:44.779Z,94990.81
2017-10-09T22:37:13.128Z,94992.77
2017-10-09T22:39:41.503Z,94991.59
2017-10-09T22:42:09.873Z,94984.72
2017-10-09T22:44:38.223Z,94993.67
2017-10-09T22:47:07.461Z,94983.16
2017-10-09T22:49:35.803Z,94983.02
2017-10-09T22:52:04.284Z,94989.61
2017-10-09T22:54:41.478Z,94990.69
2017-10-09T22:57:09.858Z,94987.05
2017-10-09T22:59:38.210Z,94982.98
2017-10-09T23:02:06.596Z,94978.80
2017-10-09T23:04:35.096Z,94976.37
2017-10-09T23:07:03.540Z,94979.00
2017-10-09T23:09:31.878Z,94971.22
2017-10-09T23:12:00.231Z,94973.65
2017-10-09T23:14:28.583Z,94967.30
2017-10-09T23:16:56.923Z,94967.55
2017-10-09T23:19:25.272Z,94966.77
2017-10-09T23:21:53.642Z,94962.48
2017-10-09T23:24:22.023Z,94958.46
2017-10-09T23:26:50.398Z,94948.99
2017-10-09T23:29:18.735Z,94959.64
2017-10-09T23:31:47.107Z,94964.69
2017-10-09T23:34:15.456Z,94963.14
2017-10-09T23:36:43.799Z,94958.98
2017-10-09T23:39:12.152Z,94962.89
2017-10-09T23:41:40.526Z,94960.28
2017-10-09T23:44:08.880Z,94961.53
2017-10-09T23:46:37.250Z,94959.70
2017-10-09T23:49:05.626Z,94959.97
2017-10-09T23:51:33.970Z,94957.77
2017-10-09T23:54:02.342Z,94959.81
2017-10-09T23:56:30.714Z,94954.36
2017-10-09T23:58:59.060Z,94960.94
